ΕΜΥ, Εθνική Μετεωρολογική Υπηρεσία - Δελτία Καιρού, Προγνώσεις

ΑΕΡΟΝΑΥΤΙΛΙΑ

GREEK AIRPORTS CODES

LGNX 021150Z 01015G25KT 9999 BKN025 11/02 Q1026=

EUROPEAN AIRPORTS CODES

LFPO 030530Z 21003KT 9000 NSC 07/04 Q1028 NOSIG=